sensor_id;sensor_type;location;lat;lon;timestamp;temperature;humidity
22682;DHT22;11508;50.856;4.380;2022-09-03T00:02:23;21.20;99.90
22682;DHT22;11508;50.856;4.380;2022-09-03T00:07:59;21.10;99.90
22682;DHT22;11508;50.856;4.380;2022-09-03T00:10:33;21.00;99.90
22682;DHT22;11508;50.856;4.380;2022-09-03T00:13:03;21.00;99.90
22682;DHT22;11508;50.856;4.380;2022-09-03T00:15:31;21.00;99.90
22682;DHT22;11508;50.856;4.380;2022-09-03T00:18:20;21.10;99.90
22682;DHT22;11508;50.856;4.380;2022-09-03T00:23:26;21.10;99.90
22682;DHT22;11508;50.856;4.380;2022-09-03T00:26:21;21.00;99.90
22682;DHT22;11508;50.856;4.380;2022-09-03T00:29:05;21.00;99.90
22682;DHT22;11508;50.856;4.380;2022-09-03T00:31:39;21.00;99.90
22682;DHT22;11508;50.856;4.380;2022-09-03T00:34:28;20.90;99.90
22682;DHT22;11508;50.856;4.380;2022-09-03T00:36:55;21.00;99.90
22682;DHT22;11508;50.856;4.380;2022-09-03T00:39:23;21.00;99.90
22682;DHT22;11508;50.856;4.380;2022-09-03T00:45:09;21.10;99.90
22682;DHT22;11508;50.856;4.380;2022-09-03T00:50:59;21.20;52.90
22682;DHT22;11508;50.856;4.380;2022-09-03T00:53:55;21.20;19.80
22682;DHT22;11508;50.856;4.380;2022-09-03T00:56:54;21.20;1.00
22682;DHT22;11508;50.856;4.380;2022-09-03T01:00:08;21.10;1.00
22682;DHT22;11508;50.856;4.380;2022-09-03T01:02:55;21.10;1.00
22682;DHT22;11508;50.856;4.380;2022-09-03T01:13:41;21.20;1.00
22682;DHT22;11508;50.856;4.380;2022-09-03T01:16:27;21.20;1.00
22682;DHT22;11508;50.856;4.380;2022-09-03T01:28:38;21.10;99.90
22682;DHT22;11508;50.856;4.380;2022-09-03T01:31:23;21.10;99.90
22682;DHT22;11508;50.856;4.380;2022-09-03T01:37:24;21.20;99.90
22682;DHT22;11508;50.856;4.380;2022-09-03T01:40:09;21.20;99.90
22682;DHT22;11508;50.856;4.380;2022-09-03T01:42:46;21.30;99.90
22682;DHT22;11508;50.856;4.380;2022-09-03T02:02:09;21.20;1.00
22682;DHT22;11508;50.856;4.380;2022-09-03T02:05:00;21.20;1.00
22682;DHT22;11508;50.856;4.380;2022-09-03T02:10:08;21.00;1.00
22682;DHT22;11508;50.856;4.380;2022-09-03T02:12:36;21.00;1.00
22682;DHT22;11508;50.856;4.380;2022-09-03T02:15:10;21.10;1.00
22682;DHT22;11508;50.856;4.380;2022-09-03T02:17:36;21.30;1.00
22682;DHT22;11508;50.856;4.380;2022-09-03T02:20:09;21.30;1.00
22682;DHT22;11508;50.856;4.380;2022-09-03T02:22:38;21.20;1.00
22682;DHT22;11508;50.856;4.380;2022-09-03T02:25:06;21.40;1.00
22682;DHT22;11508;50.856;4.380;2022-09-03T02:27:32;21.50;1.00
22682;DHT22;11508;50.856;4.380;2022-09-03T02:29:58;21.40;1.00
22682;DHT22;11508;50.856;4.380;2022-09-03T02:32:25;21.30;1.00
22682;DHT22;11508;50.856;4.380;2022-09-03T02:34:51;21.20;1.00
22682;DHT22;11508;50.856;4.380;2022-09-03T02:37:17;21.10;1.00
22682;DHT22;11508;50.856;4.380;2022-09-03T02:39:44;21.00;1.00
22682;DHT22;11508;50.856;4.380;2022-09-03T02:42:11;20.90;1.00
22682;DHT22;11508;50.856;4.380;2022-09-03T02:44:42;20.80;1.00
22682;DHT22;11508;50.856;4.380;2022-09-03T02:47:09;20.80;1.00
22682;DHT22;11508;50.856;4.380;2022-09-03T02:49:35;20.90;1.00
22682;DHT22;11508;50.856;4.380;2022-09-03T02:52:06;20.90;1.00
22682;DHT22;11508;50.856;4.380;2022-09-03T02:54:35;20.80;2.60
22682;DHT22;11508;50.856;4.380;2022-09-03T02:57:05;20.80;5.60
22682;DHT22;11508;50.856;4.380;2022-09-03T02:59:31;20.80;6.20
22682;DHT22;11508;50.856;4.380;2022-09-03T03:01:57;20.90;7.30
22682;DHT22;11508;50.856;4.380;2022-09-03T03:04:23;20.90;4.60
22682;DHT22;11508;50.856;4.380;2022-09-03T03:06:49;20.70;9.10
22682;DHT22;11508;50.856;4.380;2022-09-03T03:09:17;20.70;10.30
22682;DHT22;11508;50.856;4.380;2022-09-03T03:11:43;20.60;13.00
22682;DHT22;11508;50.856;4.380;2022-09-03T03:14:09;20.60;13.80
22682;DHT22;11508;50.856;4.380;2022-09-03T03:16:34;20.60;14.00
22682;DHT22;11508;50.856;4.380;2022-09-03T03:19:00;20.60;12.30
22682;DHT22;11508;50.856;4.380;2022-09-03T03:21:27;20.60;13.10
22682;DHT22;11508;50.856;4.380;2022-09-03T03:23:53;20.40;18.80
22682;DHT22;11508;50.856;4.380;2022-09-03T03:26:20;20.40;19.30
22682;DHT22;11508;50.856;4.380;2022-09-03T03:28:47;20.40;20.30
22682;DHT22;11508;50.856;4.380;2022-09-03T03:31:20;20.40;22.40
22682;DHT22;11508;50.856;4.380;2022-09-03T03:33:54;20.30;24.60
22682;DHT22;11508;50.856;4.380;2022-09-03T03:36:21;20.30;26.70
22682;DHT22;11508;50.856;4.380;2022-09-03T03:38:47;20.30;26.20
22682;DHT22;11508;50.856;4.380;2022-09-03T03:41:24;20.30;25.50
22682;DHT22;11508;50.856;4.380;2022-09-03T03:43:54;20.40;24.50
22682;DHT22;11508;50.856;4.380;2022-09-03T03:46:21;20.40;22.70
22682;DHT22;11508;50.856;4.380;2022-09-03T03:48:51;20.50;21.20
22682;DHT22;11508;50.856;4.380;2022-09-03T03:51:17;20.50;18.70
22682;DHT22;11508;50.856;4.380;2022-09-03T03:53:44;20.60;13.80
22682;DHT22;11508;50.856;4.380;2022-09-03T03:56:11;20.60;16.30
22682;DHT22;11508;50.856;4.380;2022-09-03T03:58:38;20.50;22.10
22682;DHT22;11508;50.856;4.380;2022-09-03T04:01:15;20.50;31.50
22682;DHT22;11508;50.856;4.380;2022-09-03T04:03:41;20.40;51.10
22682;DHT22;11508;50.856;4.380;2022-09-03T04:06:09;20.10;72.00
22682;DHT22;11508;50.856;4.380;2022-09-03T04:08:37;19.90;88.40
22682;DHT22;11508;50.856;4.380;2022-09-03T04:11:05;19.80;94.40
22682;DHT22;11508;50.856;4.380;2022-09-03T04:13:41;19.80;98.50
22682;DHT22;11508;50.856;4.380;2022-09-03T04:16:10;19.70;98.80
22682;DHT22;11508;50.856;4.380;2022-09-03T04:18:37;19.60;97.80
22682;DHT22;11508;50.856;4.380;2022-09-03T04:21:09;19.50;98.10
22682;DHT22;11508;50.856;4.380;2022-09-03T04:23:40;19.50;98.50
22682;DHT22;11508;50.856;4.380;2022-09-03T04:26:07;19.40;95.70
22682;DHT22;11508;50.856;4.380;2022-09-03T04:28:34;19.40;99.10
22682;DHT22;11508;50.856;4.380;2022-09-03T04:31:07;19.40;99.80
22682;DHT22;11508;50.856;4.380;2022-09-03T04:33:33;19.30;98.30
22682;DHT22;11508;50.856;4.380;2022-09-03T04:36:07;19.30;98.50
22682;DHT22;11508;50.856;4.380;2022-09-03T04:38:35;19.20;99.90
22682;DHT22;11508;50.856;4.380;2022-09-03T04:41:01;19.10;99.60
22682;DHT22;11508;50.856;4.380;2022-09-03T04:43:28;19.10;99.90
22682;DHT22;11508;50.856;4.380;2022-09-03T04:45:58;19.10;99.90
22682;DHT22;11508;50.856;4.380;2022-09-03T04:48:25;19.00;99.90
22682;DHT22;11508;50.856;4.380;2022-09-03T04:50:51;19.00;99.90
22682;DHT22;11508;50.856;4.380;2022-09-03T04:53:17;18.90;99.90
22682;DHT22;11508;50.856;4.380;2022-09-03T04:55:43;18.80;99.90
22682;DHT22;11508;50.856;4.380;2022-09-03T04:58:09;18.70;99.90
22682;DHT22;11508;50.856;4.380;2022-09-03T05:00:35;18.70;99.90
22682;DHT22;11508;50.856;4.380;2022-09-03T05:03:02;18.70;99.90
22682;DHT22;11508;50.856;4.380;2022-09-03T05:05:30;18.80;99.90
22682;DHT22;11508;50.856;4.380;2022-09-03T05:08:00;18.80;99.90
22682;DHT22;11508;50.856;4.380;2022-09-03T05:10:29;18.90;99.90
22682;DHT22;11508;50.856;4.380;2022-09-03T05:13:04;19.00;99.90
22682;DHT22;11508;50.856;4.380;2022-09-03T05:15:31;19.00;99.90
22682;DHT22;11508;50.856;4.380;2022-09-03T05:18:01;18.90;99.90
22682;DHT22;11508;50.856;4.380;2022-09-03T05:20:28;19.00;99.90
22682;DHT22;11508;50.856;4.380;2022-09-03T05:22:55;19.10;99.90
22682;DHT22;11508;50.856;4.380;2022-09-03T05:25:22;19.10;99.90
22682;DHT22;11508;50.856;4.380;2022-09-03T05:27:48;19.10;99.90
22682;DHT22;11508;50.856;4.380;2022-09-03T05:30:14;19.10;99.90
22682;DHT22;11508;50.856;4.380;2022-09-03T05:32:41;19.20;99.90
22682;DHT22;11508;50.856;4.380;2022-09-03T05:35:07;19.30;99.90
22682;DHT22;11508;50.856;4.380;2022-09-03T05:37:33;19.30;99.90
22682;DHT22;11508;50.856;4.380;2022-09-03T05:39:59;19.40;99.90
22682;DHT22;11508;50.856;4.380;2022-09-03T05:42:24;19.40;99.90
22682;DHT22;11508;50.856;4.380;2022-09-03T05:44:52;19.50;99.90
22682;DHT22;11508;50.856;4.380;2022-09-03T05:47:17;19.50;99.90
22682;DHT22;11508;50.856;4.380;2022-09-03T05:49:43;19.60;99.90
22682;DHT22;11508;50.856;4.380;2022-09-03T05:52:08;19.70;99.90
22682;DHT22;11508;50.856;4.380;2022-09-03T05:54:34;19.70;99.90
22682;DHT22;11508;50.856;4.380;2022-09-03T05:57:00;19.80;99.90
22682;DHT22;11508;50.856;4.380;2022-09-03T05:59:26;19.90;98.50
22682;DHT22;11508;50.856;4.380;2022-09-03T06:01:52;19.90;98.00
22682;DHT22;11508;50.856;4.380;2022-09-03T06:04:18;19.90;98.40
22682;DHT22;11508;50.856;4.380;2022-09-03T06:06:45;19.90;97.10
22682;DHT22;11508;50.856;4.380;2022-09-03T06:09:18;19.90;99.30
22682;DHT22;11508;50.856;4.380;2022-09-03T06:11:45;19.90;99.60
22682;DHT22;11508;50.856;4.380;2022-09-03T06:14:12;20.10;98.00
22682;DHT22;11508;50.856;4.380;2022-09-03T06:16:40;20.20;93.70
22682;DHT22;11508;50.856;4.380;2022-09-03T06:19:07;20.10;88.00
22682;DHT22;11508;50.856;4.380;2022-09-03T06:21:41;20.10;91.70
22682;DHT22;11508;50.856;4.380;2022-09-03T06:24:09;20.20;82.60
22682;DHT22;11508;50.856;4.380;2022-09-03T06:26:36;20.10;77.30
22682;DHT22;11508;50.856;4.380;2022-09-03T06:29:02;19.90;84.00
22682;DHT22;11508;50.856;4.380;2022-09-03T06:31:28;19.90;87.20
22682;DHT22;11508;50.856;4.380;2022-09-03T06:33:54;19.80;90.90
22682;DHT22;11508;50.856;4.380;2022-09-03T06:36:21;19.90;87.40
22682;DHT22;11508;50.856;4.380;2022-09-03T06:38:51;19.90;79.00
22682;DHT22;11508;50.856;4.380;2022-09-03T06:41:18;19.90;80.90
22682;DHT22;11508;50.856;4.380;2022-09-03T06:43:45;20.10;72.80
22682;DHT22;11508;50.856;4.380;2022-09-03T06:46:14;20.10;66.70
22682;DHT22;11508;50.856;4.380;2022-09-03T06:48:41;20.10;64.20
22682;DHT22;11508;50.856;4.380;2022-09-03T06:51:16;20.30;61.20
22682;DHT22;11508;50.856;4.380;2022-09-03T06:53:45;20.70;55.50
22682;DHT22;11508;50.856;4.380;2022-09-03T06:56:13;20.70;46.80
22682;DHT22;11508;50.856;4.380;2022-09-03T06:58:46;20.50;49.00
22682;DHT22;11508;50.856;4.380;2022-09-03T07:01:21;20.50;44.10
22682;DHT22;11508;50.856;4.380;2022-09-03T07:03:54;20.50;51.50
22682;DHT22;11508;50.856;4.380;2022-09-03T07:06:24;20.50;47.90
22682;DHT22;11508;50.856;4.380;2022-09-03T07:08:50;20.50;49.50
22682;DHT22;11508;50.856;4.380;2022-09-03T07:11:18;20.60;36.80
22682;DHT22;11508;50.856;4.380;2022-09-03T07:13:48;20.90;38.10
22682;DHT22;11508;50.856;4.380;2022-09-03T07:16:19;21.00;25.10
22682;DHT22;11508;50.856;4.380;2022-09-03T07:18:45;20.80;22.60
22682;DHT22;11508;50.856;4.380;2022-09-03T07:21:14;21.10;24.50
22682;DHT22;11508;50.856;4.380;2022-09-03T07:23:40;21.30;20.60
22682;DHT22;11508;50.856;4.380;2022-09-03T07:26:11;21.20;15.10
22682;DHT22;11508;50.856;4.380;2022-09-03T07:28:38;21.10;18.10
22682;DHT22;11508;50.856;4.380;2022-09-03T07:31:10;21.00;23.80
22682;DHT22;11508;50.856;4.380;2022-09-03T07:33:37;20.90;21.90
22682;DHT22;11508;50.856;4.380;2022-09-03T07:36:09;20.90;23.30
22682;DHT22;11508;50.856;4.380;2022-09-03T07:38:35;20.90;16.30
22682;DHT22;11508;50.856;4.380;2022-09-03T07:41:04;20.80;20.90
22682;DHT22;11508;50.856;4.380;2022-09-03T07:43:36;20.80;21.00
22682;DHT22;11508;50.856;4.380;2022-09-03T07:46:08;20.80;24.40
22682;DHT22;11508;50.856;4.380;2022-09-03T07:48:38;20.70;22.90
22682;DHT22;11508;50.856;4.380;2022-09-03T07:51:05;20.80;27.60
22682;DHT22;11508;50.856;4.380;2022-09-03T07:53:31;20.80;25.90
22682;DHT22;11508;50.856;4.380;2022-09-03T07:56:02;20.70;23.30
22682;DHT22;11508;50.856;4.380;2022-09-03T07:58:29;21.00;25.60
22682;DHT22;11508;50.856;4.380;2022-09-03T08:00:55;21.30;18.60
22682;DHT22;11508;50.856;4.380;2022-09-03T08:03:21;21.20;19.00
22682;DHT22;11508;50.856;4.380;2022-09-03T08:05:47;21.40;16.10
22682;DHT22;11508;50.856;4.380;2022-09-03T08:08:13;21.60;18.90
22682;DHT22;11508;50.856;4.380;2022-09-03T08:10:39;21.90;10.70
22682;DHT22;11508;50.856;4.380;2022-09-03T08:13:06;22.10;1.00
22682;DHT22;11508;50.856;4.380;2022-09-03T08:15:33;22.00;1.00
22682;DHT22;11508;50.856;4.380;2022-09-03T08:17:59;21.80;2.50
22682;DHT22;11508;50.856;4.380;2022-09-03T08:20:26;21.90;1.90
22682;DHT22;11508;50.856;4.380;2022-09-03T08:22:52;22.10;5.90
22682;DHT22;11508;50.856;4.380;2022-09-03T08:25:18;22.30;1.00
22682;DHT22;11508;50.856;4.380;2022-09-03T08:27:44;22.20;1.00
22682;DHT22;11508;50.856;4.380;2022-09-03T08:30:10;21.90;1.00
22682;DHT22;11508;50.856;4.380;2022-09-03T08:32:39;22.20;5.40
22682;DHT22;11508;50.856;4.380;2022-09-03T08:35:06;22.60;1.00
22682;DHT22;11508;50.856;4.380;2022-09-03T08:37:34;23.00;1.00
22682;DHT22;11508;50.856;4.380;2022-09-03T08:40:00;23.30;1.00
22682;DHT22;11508;50.856;4.380;2022-09-03T08:45:16;22.80;1.00
22682;DHT22;11508;50.856;4.380;2022-09-03T08:47:48;23.00;1.00
22682;DHT22;11508;50.856;4.380;2022-09-03T08:50:31;23.10;1.00
22682;DHT22;11508;50.856;4.380;2022-09-03T08:56:02;23.10;1.00
22682;DHT22;11508;50.856;4.380;2022-09-03T08:58:32;23.70;1.00
22682;DHT22;11508;50.856;4.380;2022-09-03T09:01:09;23.40;1.00
22682;DHT22;11508;50.856;4.380;2022-09-03T09:06:43;23.70;1.00
22682;DHT22;11508;50.856;4.380;2022-09-03T09:20:22;24.20;1.00
22682;DHT22;11508;50.856;4.380;2022-09-03T09:23:00;24.20;1.00
22682;DHT22;11508;50.856;4.380;2022-09-03T09:25:27;24.30;1.00
22682;DHT22;11508;50.856;4.380;2022-09-03T09:28:12;24.20;1.00
22682;DHT22;11508;50.856;4.380;2022-09-03T09:30:41;24.60;1.00
22682;DHT22;11508;50.856;4.380;2022-09-03T09:33:09;24.70;1.00
22682;DHT22;11508;50.856;4.380;2022-09-03T09:35:34;24.60;1.00
22682;DHT22;11508;50.856;4.380;2022-09-03T09:38:00;24.20;1.00
22682;DHT22;11508;50.856;4.380;2022-09-03T09:40:36;24.20;1.00
22682;DHT22;11508;50.856;4.380;2022-09-03T09:43:13;24.40;1.00
22682;DHT22;11508;50.856;4.380;2022-09-03T09:45:46;24.30;1.00
22682;DHT22;11508;50.856;4.380;2022-09-03T09:48:25;24.30;1.00
22682;DHT22;11508;50.856;4.380;2022-09-03T09:51:25;24.50;1.00
22682;DHT22;11508;50.856;4.380;2022-09-03T09:54:16;23.90;1.00
22682;DHT22;11508;50.856;4.380;2022-09-03T09:56:56;23.70;1.00
22682;DHT22;11508;50.856;4.380;2022-09-03T09:59:22;23.70;1.00
22682;DHT22;11508;50.856;4.380;2022-09-03T10:01:48;23.30;10.60
22682;DHT22;11508;50.856;4.380;2022-09-03T10:04:28;23.50;11.60
22682;DHT22;11508;50.856;4.380;2022-09-03T10:07:18;23.90;8.20
22682;DHT22;11508;50.856;4.380;2022-09-03T10:09:56;24.40;1.00
22682;DHT22;11508;50.856;4.380;2022-09-03T10:12:43;24.40;1.00
22682;DHT22;11508;50.856;4.380;2022-09-03T10:15:36;24.10;1.00
22682;DHT22;11508;50.856;4.380;2022-09-03T10:18:48;23.90;1.30
22682;DHT22;11508;50.856;4.380;2022-09-03T10:21:40;24.00;1.00
22682;DHT22;11508;50.856;4.380;2022-09-03T10:27:06;24.10;1.00
22682;DHT22;11508;50.856;4.380;2022-09-03T10:29:38;24.30;1.00
22682;DHT22;11508;50.856;4.380;2022-09-03T10:35:29;24.30;1.00
22682;DHT22;11508;50.856;4.380;2022-09-03T10:40:40;24.10;1.00
22682;DHT22;11508;50.856;4.380;2022-09-03T10:51:34;25.50;1.00
22682;DHT22;11508;50.856;4.380;2022-09-03T10:54:20;25.90;1.00
22682;DHT22;11508;50.856;4.380;2022-09-03T10:57:09;26.10;1.00
22682;DHT22;11508;50.856;4.380;2022-09-03T10:59:53;26.50;1.00
22682;DHT22;11508;50.856;4.380;2022-09-03T11:02:28;26.40;1.00
22682;DHT22;11508;50.856;4.380;2022-09-03T11:10:28;25.80;1.00
22682;DHT22;11508;50.856;4.380;2022-09-03T11:13:05;25.40;1.00
22682;DHT22;11508;50.856;4.380;2022-09-03T11:15:55;26.30;1.00
22682;DHT22;11508;50.856;4.380;2022-09-03T11:18:36;26.30;1.00
22682;DHT22;11508;50.856;4.380;2022-09-03T11:21:09;27.00;1.00
22682;DHT22;11508;50.856;4.380;2022-09-03T11:23:41;27.10;1.00
22682;DHT22;11508;50.856;4.380;2022-09-03T11:26:11;27.70;99.90
22682;DHT22;11508;50.856;4.380;2022-09-03T11:34:13;28.90;99.90
22682;DHT22;11508;50.856;4.380;2022-09-03T11:36:40;28.30;99.90
22682;DHT22;11508;50.856;4.380;2022-09-03T11:39:32;26.90;99.90
22682;DHT22;11508;50.856;4.380;2022-09-03T11:42:03;26.00;99.90
22682;DHT22;11508;50.856;4.380;2022-09-03T11:44:41;25.70;1.00
22682;DHT22;11508;50.856;4.380;2022-09-03T11:47:34;25.20;1.00
22682;DHT22;11508;50.856;4.380;2022-09-03T11:50:30;25.30;1.00
22682;DHT22;11508;50.856;4.380;2022-09-03T11:55:59;25.20;1.00
22682;DHT22;11508;50.856;4.380;2022-09-03T11:58:34;25.50;1.00
22682;DHT22;11508;50.856;4.380;2022-09-03T12:01:03;25.40;1.00
22682;DHT22;11508;50.856;4.380;2022-09-03T12:03:46;25.40;1.00
22682;DHT22;11508;50.856;4.380;2022-09-03T12:14:50;25.90;1.00
22682;DHT22;11508;50.856;4.380;2022-09-03T12:17:32;25.70;1.00
22682;DHT22;11508;50.856;4.380;2022-09-03T12:19:59;25.20;1.00
22682;DHT22;11508;50.856;4.380;2022-09-03T12:22:35;25.60;1.00
22682;DHT22;11508;50.856;4.380;2022-09-03T12:25:08;26.20;1.00
22682;DHT22;11508;50.856;4.380;2022-09-03T12:27:34;27.00;1.00
22682;DHT22;11508;50.856;4.380;2022-09-03T12:30:03;27.20;99.90
22682;DHT22;11508;50.856;4.380;2022-09-03T12:32:34;26.80;99.90
22682;DHT22;11508;50.856;4.380;2022-09-03T12:35:19;26.50;1.00
22682;DHT22;11508;50.856;4.380;2022-09-03T12:37:45;26.10;1.00
22682;DHT22;11508;50.856;4.380;2022-09-03T12:40:17;25.90;1.00
22682;DHT22;11508;50.856;4.380;2022-09-03T12:42:43;26.40;1.00
22682;DHT22;11508;50.856;4.380;2022-09-03T12:45:09;27.00;99.90
22682;DHT22;11508;50.856;4.380;2022-09-03T12:47:41;27.40;99.90
22682;DHT22;11508;50.856;4.380;2022-09-03T12:50:16;26.80;99.90
22682;DHT22;11508;50.856;4.380;2022-09-03T12:52:57;26.30;99.90
22682;DHT22;11508;50.856;4.380;2022-09-03T12:58:11;26.40;99.90
22682;DHT22;11508;50.856;4.380;2022-09-03T13:00:46;26.10;99.90
22682;DHT22;11508;50.856;4.380;2022-09-03T13:03:27;26.30;99.90
22682;DHT22;11508;50.856;4.380;2022-09-03T13:06:05;26.10;99.90
22682;DHT22;11508;50.856;4.380;2022-09-03T13:09:00;26.10;99.90
22682;DHT22;11508;50.856;4.380;2022-09-03T13:11:25;26.20;99.90
22682;DHT22;11508;50.856;4.380;2022-09-03T13:13:54;26.30;99.90
22682;DHT22;11508;50.856;4.380;2022-09-03T13:22:06;25.80;99.90
22682;DHT22;11508;50.856;4.380;2022-09-03T13:27:36;25.70;99.90
22682;DHT22;11508;50.856;4.380;2022-09-03T13:30:16;26.30;99.90
22682;DHT22;11508;50.856;4.380;2022-09-03T13:35:43;26.30;99.90
22682;DHT22;11508;50.856;4.380;2022-09-03T13:38:26;26.50;99.90
22682;DHT22;11508;50.856;4.380;2022-09-03T13:43:44;27.30;99.90
22682;DHT22;11508;50.856;4.380;2022-09-03T13:49:38;28.30;29.70
22682;DHT22;11508;50.856;4.380;2022-09-03T13:52:34;28.30;1.00
22682;DHT22;11508;50.856;4.380;2022-09-03T13:55:16;28.50;99.90
22682;DHT22;11508;50.856;4.380;2022-09-03T13:57:48;28.30;99.90
22682;DHT22;11508;50.856;4.380;2022-09-03T14:00:23;28.30;99.90
22682;DHT22;11508;50.856;4.380;2022-09-03T14:03:09;28.30;99.90
22682;DHT22;11508;50.856;4.380;2022-09-03T14:08:31;27.00;1.00
22682;DHT22;11508;50.856;4.380;2022-09-03T14:11:55;26.50;32.00
22682;DHT22;11508;50.856;4.380;2022-09-03T14:19:48;26.50;1.00
22682;DHT22;11508;50.856;4.380;2022-09-03T14:22:24;26.50;1.00
22682;DHT22;11508;50.856;4.380;2022-09-03T14:27:43;26.20;1.00
22682;DHT22;11508;50.856;4.380;2022-09-03T14:35:47;26.20;99.90
22682;DHT22;11508;50.856;4.380;2022-09-03T14:38:52;26.40;66.90
22682;DHT22;11508;50.856;4.380;2022-09-03T14:41:48;26.30;99.90
22682;DHT22;11508;50.856;4.380;2022-09-03T14:47:36;25.90;99.90
22682;DHT22;11508;50.856;4.380;2022-09-03T14:56:00;24.40;1.30
22682;DHT22;11508;50.856;4.380;2022-09-03T14:59:09;23.90;13.40
22682;DHT22;11508;50.856;4.380;2022-09-03T15:01:35;23.70;42.60
22682;DHT22;11508;50.856;4.380;2022-09-03T15:12:17;23.80;60.00
22682;DHT22;11508;50.856;4.380;2022-09-03T15:14:54;23.90;74.00
22682;DHT22;11508;50.856;4.380;2022-09-03T15:17:46;24.10;70.80
22682;DHT22;11508;50.856;4.380;2022-09-03T15:23:25;24.50;41.60
22682;DHT22;11508;50.856;4.380;2022-09-03T15:36:51;24.60;25.00
22682;DHT22;11508;50.856;4.380;2022-09-03T15:39:25;24.50;22.20
22682;DHT22;11508;50.856;4.380;2022-09-03T15:41:54;24.50;19.70
22682;DHT22;11508;50.856;4.380;2022-09-03T15:44:23;24.60;34.10
22682;DHT22;11508;50.856;4.380;2022-09-03T15:46:58;24.70;22.20
22682;DHT22;11508;50.856;4.380;2022-09-03T15:49:50;24.80;26.00
22682;DHT22;11508;50.856;4.380;2022-09-03T15:52:36;24.60;7.80
22682;DHT22;11508;50.856;4.380;2022-09-03T15:55:33;24.20;22.30
22682;DHT22;11508;50.856;4.380;2022-09-03T16:00:50;23.80;35.40
22682;DHT22;11508;50.856;4.380;2022-09-03T16:03:30;23.70;38.20
22682;DHT22;11508;50.856;4.380;2022-09-03T16:06:04;23.70;42.30
22682;DHT22;11508;50.856;4.380;2022-09-03T16:11:15;23.70;37.90
22682;DHT22;11508;50.856;4.380;2022-09-03T16:14:04;23.60;38.70
22682;DHT22;11508;50.856;4.380;2022-09-03T16:20:16;23.80;36.00
22682;DHT22;11508;50.856;4.380;2022-09-03T16:22:54;24.00;36.40
22682;DHT22;11508;50.856;4.380;2022-09-03T16:25:28;24.10;29.50
22682;DHT22;11508;50.856;4.380;2022-09-03T16:28:12;24.20;29.20
22682;DHT22;11508;50.856;4.380;2022-09-03T16:56:13;25.00;1.00
22682;DHT22;11508;50.856;4.380;2022-09-03T17:12:37;24.90;1.00
22682;DHT22;11508;50.856;4.380;2022-09-03T17:18:13;24.70;1.00
22682;DHT22;11508;50.856;4.380;2022-09-03T17:31:48;24.00;8.30
22682;DHT22;11508;50.856;4.380;2022-09-03T17:37:27;23.90;9.10
22682;DHT22;11508;50.856;4.380;2022-09-03T17:40:47;23.90;12.10
22682;DHT22;11508;50.856;4.380;2022-09-03T17:43:22;23.70;21.00
22682;DHT22;11508;50.856;4.380;2022-09-03T17:46:07;23.70;24.10
22682;DHT22;11508;50.856;4.380;2022-09-03T17:51:28;23.50;18.80
22682;DHT22;11508;50.856;4.380;2022-09-03T17:56:53;23.50;21.00
22682;DHT22;11508;50.856;4.380;2022-09-03T17:59:24;23.40;21.30
22682;DHT22;11508;50.856;4.380;2022-09-03T18:02:26;23.50;23.00
22682;DHT22;11508;50.856;4.380;2022-09-03T18:05:04;23.50;20.50
22682;DHT22;11508;50.856;4.380;2022-09-03T18:07:55;23.40;21.90
22682;DHT22;11508;50.856;4.380;2022-09-03T18:18:29;23.10;44.20
22682;DHT22;11508;50.856;4.380;2022-09-03T18:20:57;23.10;47.70
22682;DHT22;11508;50.856;4.380;2022-09-03T18:27:02;23.10;54.10
22682;DHT22;11508;50.856;4.380;2022-09-03T18:30:04;23.00;52.10
22682;DHT22;11508;50.856;4.380;2022-09-03T18:32:49;23.00;55.10
22682;DHT22;11508;50.856;4.380;2022-09-03T18:35:34;22.90;54.30
22682;DHT22;11508;50.856;4.380;2022-09-03T18:38:24;22.90;57.70
22682;DHT22;11508;50.856;4.380;2022-09-03T18:46:58;22.80;45.60
22682;DHT22;11508;50.856;4.380;2022-09-03T18:49:57;22.70;46.20
22682;DHT22;11508;50.856;4.380;2022-09-03T18:52:58;22.60;48.60
22682;DHT22;11508;50.856;4.380;2022-09-03T18:56:14;22.60;45.70
22682;DHT22;11508;50.856;4.380;2022-09-03T19:01:45;22.60;41.30
22682;DHT22;11508;50.856;4.380;2022-09-03T19:08:05;22.50;38.90
22682;DHT22;11508;50.856;4.380;2022-09-03T19:11:08;22.40;41.30
22682;DHT22;11508;50.856;4.380;2022-09-03T19:14:04;22.40;41.10
22682;DHT22;11508;50.856;4.380;2022-09-03T19:17:08;22.50;41.50
22682;DHT22;11508;50.856;4.380;2022-09-03T19:20:19;22.50;41.30
22682;DHT22;11508;50.856;4.380;2022-09-03T19:23:04;22.60;39.30
22682;DHT22;11508;50.856;4.380;2022-09-03T19:25:51;22.70;35.00
22682;DHT22;11508;50.856;4.380;2022-09-03T19:28:40;22.70;35.80
22682;DHT22;11508;50.856;4.380;2022-09-03T19:46:58;22.40;48.80
22682;DHT22;11508;50.856;4.380;2022-09-03T19:52:44;22.50;47.00
22682;DHT22;11508;50.856;4.380;2022-09-03T19:55:33;22.70;42.40
22682;DHT22;11508;50.856;4.380;2022-09-03T19:58:22;22.70;41.10
22682;DHT22;11508;50.856;4.380;2022-09-03T20:01:08;22.80;36.70
22682;DHT22;11508;50.856;4.380;2022-09-03T20:03:55;22.90;36.40
22682;DHT22;11508;50.856;4.380;2022-09-03T20:06:41;22.90;34.60
22682;DHT22;11508;50.856;4.380;2022-09-03T20:09:29;23.00;35.00
22682;DHT22;11508;50.856;4.380;2022-09-03T20:12:16;23.10;36.40
22682;DHT22;11508;50.856;4.380;2022-09-03T20:14:44;23.10;36.00
22682;DHT22;11508;50.856;4.380;2022-09-03T20:50:01;22.00;57.80
22682;DHT22;11508;50.856;4.380;2022-09-03T20:55:28;21.90;57.50
22682;DHT22;11508;50.856;4.380;2022-09-03T21:00:27;22.10;56.00
22682;DHT22;11508;50.856;4.380;2022-09-03T21:05:57;22.40;50.60
22682;DHT22;11508;50.856;4.380;2022-09-03T21:11:57;22.60;46.50
22682;DHT22;11508;50.856;4.380;2022-09-03T21:18:03;22.60;46.20
22682;DHT22;11508;50.856;4.380;2022-09-03T21:23:47;22.40;48.30
22682;DHT22;11508;50.856;4.380;2022-09-03T21:31:31;21.90;57.40
22682;DHT22;11508;50.856;4.380;2022-09-03T21:37:05;21.70;61.80
22682;DHT22;11508;50.856;4.380;2022-09-03T21:39:42;21.60;62.10
22682;DHT22;11508;50.856;4.380;2022-09-03T21:45:05;21.40;70.60
22682;DHT22;11508;50.856;4.380;2022-09-03T21:47:39;21.20;76.00
22682;DHT22;11508;50.856;4.380;2022-09-03T21:52:48;21.00;83.60
22682;DHT22;11508;50.856;4.380;2022-09-03T21:58:25;20.90;88.50
22682;DHT22;11508;50.856;4.380;2022-09-03T22:00:45;20.90;90.10
22682;DHT22;11508;50.856;4.380;2022-09-03T22:03:12;20.90;90.90
22682;DHT22;11508;50.856;4.380;2022-09-03T22:06:05;20.90;91.10
22682;DHT22;11508;50.856;4.380;2022-09-03T22:08:57;20.90;91.30
22682;DHT22;11508;50.856;4.380;2022-09-03T22:11:34;20.90;91.30
22682;DHT22;11508;50.856;4.380;2022-09-03T22:14:08;20.90;91.40
22682;DHT22;11508;50.856;4.380;2022-09-03T22:19:21;21.10;89.30
22682;DHT22;11508;50.856;4.380;2022-09-03T22:21:54;21.10;90.20
22682;DHT22;11508;50.856;4.380;2022-09-03T22:27:15;21.30;85.40
22682;DHT22;11508;50.856;4.380;2022-09-03T22:32:46;21.30;87.40